Inuvik, Inuvik Airport (CYEV)

NameInuvik Airport
CityInuvik
CountryCanada
ICAOCYEV
IATAYEV
Altitude68 m
CoordinatesGoogle Map
Live Air TrafficLiveATC.net
METARCYEV 131100Z 29002KT 15SM -SN OVC018 M22/M25 A2953 RMK SC8 SLP012
2018-12-13 11:00:00 Wind: West (290°) 1.03 m/s - Visibility: 24140.1 m - Weather: Light Snow - Temperature: -22 °C - Dew point: -25 °C - Humidity: 76.7% - Pressure: 1000 hPa
Statistics

The table below shows the detailed information of all flights to/from Inuvik, Inuvik Airport (CYEV).